createdAt,value
2018-09-16T00:01:02.777Z,0
2018-09-16T00:02:10.811Z,0
2018-09-16T00:03:18.889Z,0
2018-09-16T00:04:26.943Z,0
2018-09-16T00:05:35.357Z,0
2018-09-16T00:06:43.035Z,0
2018-09-16T00:07:51.211Z,0
2018-09-16T00:08:59.184Z,0
2018-09-16T00:10:07.243Z,0
2018-09-16T00:11:15.320Z,0
2018-09-16T00:12:23.348Z,0
2018-09-16T00:13:31.439Z,0
2018-09-16T00:14:39.600Z,0
2018-09-16T00:15:47.563Z,0
2018-09-16T00:16:55.629Z,0
2018-09-16T00:18:03.791Z,0
2018-09-16T00:19:11.948Z,0
2018-09-16T00:20:20.014Z,0
2018-09-16T00:21:28.078Z,0
2018-09-16T00:22:36.139Z,0
2018-09-16T00:23:44.200Z,0
2018-09-16T00:24:52.267Z,0
2018-09-16T00:26:00.314Z,0
2018-09-16T00:27:08.382Z,0
2018-09-16T00:28:16.708Z,0
2018-09-16T00:29:24.770Z,0
2018-09-16T00:30:32.554Z,0
2018-09-16T00:31:40.646Z,0
2018-09-16T00:32:48.702Z,0
2018-09-16T00:33:56.764Z,0
2018-09-16T00:35:04.812Z,0
2018-09-16T00:36:12.847Z,0
2018-09-16T00:37:20.945Z,0
2018-09-16T00:38:29.004Z,0
2018-09-16T00:39:37.067Z,0
2018-09-16T00:40:45.127Z,0
2018-09-16T00:41:53.179Z,0
2018-09-16T00:43:01.247Z,0
2018-09-16T00:44:09.315Z,0
2018-09-16T00:45:17.470Z,0
2018-09-16T00:46:25.438Z,0
2018-09-16T00:47:33.827Z,0
2018-09-16T00:48:41.563Z,0
2018-09-16T00:49:49.614Z,0
2018-09-16T00:50:57.689Z,0
2018-09-16T00:52:05.758Z,0
2018-09-16T00:53:13.818Z,0
2018-09-16T00:54:21.879Z,0
2018-09-16T00:55:29.930Z,0
2018-09-16T00:56:38.049Z,0
2018-09-16T00:57:47.120Z,0
2018-09-16T00:58:54.160Z,0
2018-09-16T01:00:02.180Z,0
2018-09-16T01:01:10.231Z,0
2018-09-16T01:02:18.305Z,0
2018-09-16T01:03:26.370Z,0
2018-09-16T01:04:34.425Z,0
2018-09-16T01:05:42.473Z,0
2018-09-16T01:06:50.550Z,0
2018-09-16T01:07:58.614Z,0
2018-09-16T01:09:06.666Z,0
2018-09-16T01:10:14.725Z,0
2018-09-16T01:11:22.764Z,0
2018-09-16T01:12:30.863Z,0
2018-09-16T01:13:38.938Z,0
2018-09-16T01:14:46.977Z,0
2018-09-16T01:15:55.046Z,0
2018-09-16T01:17:03.080Z,0
2018-09-16T01:18:11.280Z,0
2018-09-16T01:19:19.234Z,0
2018-09-16T01:20:27.294Z,0
2018-09-16T01:21:35.366Z,0
2018-09-16T01:22:43.407Z,0
2018-09-16T01:23:51.483Z,0
2018-09-16T01:24:59.558Z,0
2018-09-16T01:26:07.606Z,0
2018-09-16T01:27:15.691Z,0
2018-09-16T01:28:23.736Z,0
2018-09-16T01:29:31.804Z,0
2018-09-16T01:30:40.120Z,0
2018-09-16T01:31:47.973Z,0
2018-09-16T01:32:55.990Z,0
2018-09-16T01:34:04.041Z,0
2018-09-16T01:35:12.121Z,0
2018-09-16T01:36:20.184Z,0
2018-09-16T01:37:28.234Z,0
2018-09-16T01:38:36.292Z,0
2018-09-16T01:39:44.355Z,0
2018-09-16T01:40:52.670Z,0
2018-09-16T01:42:00.470Z,0
2018-09-16T01:43:08.549Z,0
2018-09-16T01:44:16.609Z,0
2018-09-16T01:45:24.721Z,0
2018-09-16T01:46:32.710Z,0
2018-09-16T01:47:40.798Z,0
2018-09-16T01:48:48.861Z,0
2018-09-16T01:49:56.909Z,0
2018-09-16T01:51:05.449Z,0
2018-09-16T01:52:13.210Z,0
2018-09-16T01:53:21.340Z,0
2018-09-16T01:54:29.360Z,0
2018-09-16T01:55:37.420Z,0
2018-09-16T01:56:45.495Z,0
2018-09-16T01:57:53.586Z,0
2018-09-16T01:59:01.890Z,0
2018-09-16T02:00:09.678Z,0
2018-09-16T02:01:17.738Z,0
2018-09-16T02:02:25.789Z,0
2018-09-16T02:03:33.857Z,0
2018-09-16T02:04:42.189Z,0
2018-09-16T02:05:49.990Z,0
2018-09-16T02:06:58.052Z,0
2018-09-16T02:08:06.120Z,0
2018-09-16T02:09:14.164Z,0
2018-09-16T02:10:22.233Z,0
2018-09-16T02:11:30.309Z,0
2018-09-16T02:12:38.363Z,0
2018-09-16T02:13:46.429Z,0
2018-09-16T02:14:54.478Z,0
2018-09-16T02:16:02.529Z,0
2018-09-16T02:17:10.658Z,0
2018-09-16T02:18:18.689Z,0
2018-09-16T02:19:26.731Z,0
2018-09-16T02:20:34.791Z,0
2018-09-16T02:21:42.831Z,0
2018-09-16T02:22:50.927Z,0
2018-09-16T02:23:59.004Z,0
2018-09-16T02:25:07.047Z,0
2018-09-16T02:26:15.112Z,0
2018-09-16T02:27:23.236Z,0
2018-09-16T02:28:31.238Z,0
2018-09-16T02:29:39.636Z,0
2018-09-16T02:30:47.336Z,0
2018-09-16T02:31:55.423Z,0
2018-09-16T02:33:03.465Z,0
2018-09-16T02:34:11.635Z,0
2018-09-16T02:35:19.631Z,0
2018-09-16T02:36:27.871Z,0
2018-09-16T02:37:36.038Z,0
2018-09-16T02:38:43.993Z,0
2018-09-16T02:39:52.053Z,0
2018-09-16T02:41:00.118Z,0
2018-09-16T02:42:08.440Z,0
2018-09-16T02:43:16.529Z,0
2018-09-16T02:44:24.301Z,0
2018-09-16T02:45:32.359Z,0
2018-09-16T02:46:40.766Z,0
2018-09-16T02:47:48.488Z,0
2018-09-16T02:48:56.551Z,0
2018-09-16T02:50:04.620Z,0
2018-09-16T02:51:12.845Z,0
2018-09-16T02:52:20.937Z,0
2018-09-16T02:53:29.007Z,0
2018-09-16T02:54:37.070Z,0
2018-09-16T02:55:45.335Z,0
2018-09-16T02:56:53.373Z,0
2018-09-16T02:58:01.660Z,0
2018-09-16T02:59:09.731Z,0
2018-09-16T03:00:17.777Z,0
2018-09-16T03:01:25.839Z,0
2018-09-16T03:02:33.904Z,0
2018-09-16T03:03:41.951Z,0
2018-09-16T03:04:50.010Z,0
2018-09-16T03:05:58.079Z,0
2018-09-16T03:07:06.157Z,0
2018-09-16T03:08:14.207Z,0
2018-09-16T03:09:22.268Z,0
2018-09-16T03:10:30.333Z,0
2018-09-16T03:11:38.486Z,0
2018-09-16T03:12:46.453Z,0
2018-09-16T03:13:54.609Z,0
2018-09-16T03:15:02.565Z,0
2018-09-16T03:16:10.637Z,0
2018-09-16T03:17:18.708Z,0
2018-09-16T03:18:26.770Z,0
2018-09-16T03:19:35.030Z,0
2018-09-16T03:20:43.076Z,0
2018-09-16T03:21:51.150Z,0
2018-09-16T03:22:59.216Z,0
2018-09-16T03:24:07.276Z,0
2018-09-16T03:25:15.334Z,0
2018-09-16T03:26:23.376Z,0
2018-09-16T03:27:31.466Z,0
2018-09-16T03:28:39.516Z,0
2018-09-16T03:29:47.576Z,0
2018-09-16T03:30:56.731Z,0
2018-09-16T03:32:04.067Z,0
2018-09-16T03:33:11.777Z,0
2018-09-16T03:34:19.836Z,0
2018-09-16T03:35:27.901Z,0
2018-09-16T03:36:35.954Z,0
2018-09-16T03:37:44.249Z,0
2018-09-16T03:38:52.082Z,0
2018-09-16T03:40:00.135Z,0
2018-09-16T03:41:08.298Z,0
2018-09-16T03:42:16.265Z,0
2018-09-16T03:43:24.343Z,0
2018-09-16T03:44:32.391Z,0
2018-09-16T03:45:40.455Z,0
2018-09-16T03:46:48.593Z,0
2018-09-16T03:47:56.578Z,0
2018-09-16T03:49:04.887Z,0
2018-09-16T03:50:12.871Z,0
2018-09-16T03:51:21.109Z,0
2018-09-16T03:52:29.029Z,0
2018-09-16T03:53:37.094Z,0
2018-09-16T03:54:45.470Z,0
2018-09-16T03:55:53.232Z,0
2018-09-16T03:57:01.369Z,0
2018-09-16T03:58:09.328Z,0
2018-09-16T03:59:17.401Z,0
2018-09-16T04:00:25.461Z,0
2018-09-16T04:01:33.505Z,0
2018-09-16T04:02:43.296Z,0
2018-09-16T04:03:50.191Z,0
2018-09-16T04:04:58.362Z,0
2018-09-16T04:06:05.787Z,0
2018-09-16T04:07:13.823Z,0
2018-09-16T04:08:21.894Z,0
2018-09-16T04:09:29.968Z,0
2018-09-16T04:10:38.027Z,0
2018-09-16T04:11:46.725Z,0
2018-09-16T04:12:54.142Z,0
2018-09-16T04:14:02.259Z,0
2018-09-16T04:15:10.263Z,0
2018-09-16T04:16:18.328Z,0
2018-09-16T04:17:26.482Z,0
2018-09-16T04:18:34.457Z,0
2018-09-16T04:19:42.689Z,0
2018-09-16T04:20:50.785Z,0
2018-09-16T04:21:58.836Z,0
2018-09-16T04:23:07.091Z,0
2018-09-16T04:24:15.166Z,0
2018-09-16T04:25:23.239Z,0
2018-09-16T04:26:31.278Z,0
2018-09-16T04:27:39.346Z,0
2018-09-16T04:28:47.403Z,0
2018-09-16T04:29:55.470Z,0
2018-09-16T04:31:03.529Z,0
2018-09-16T04:32:11.586Z,0
2018-09-16T04:33:19.969Z,4
2018-09-16T04:34:27.723Z,4
2018-09-16T04:35:35.783Z,0
2018-09-16T04:36:43.852Z,4
2018-09-16T04:37:51.897Z,8
2018-09-16T04:38:59.954Z,8
2018-09-16T04:40:08.018Z,8
2018-09-16T04:41:16.080Z,12
2018-09-16T04:42:24.249Z,12
2018-09-16T04:43:32.210Z,16
2018-09-16T04:44:40.269Z,20
2018-09-16T04:45:48.334Z,24
2018-09-16T04:46:56.390Z,28
2018-09-16T04:48:04.498Z,36
2018-09-16T04:49:12.518Z,44
2018-09-16T04:50:20.579Z,52
2018-09-16T04:51:28.653Z,64
2018-09-16T04:52:36.702Z,76
2018-09-16T04:53:44.766Z,88
2018-09-16T04:54:52.796Z,104
2018-09-16T04:56:01.910Z,120
2018-09-16T04:57:08.968Z,140
2018-09-16T04:58:17.017Z,160
2018-09-16T04:59:25.180Z,184
2018-09-16T05:00:33.111Z,208
2018-09-16T05:01:41.551Z,228
2018-09-16T05:02:49.266Z,260
2018-09-16T05:03:57.327Z,292
2018-09-16T05:05:05.375Z,320
2018-09-16T05:06:13.432Z,352
2018-09-16T05:07:21.517Z,388
2018-09-16T05:08:29.887Z,420
2018-09-16T05:09:37.835Z,460
2018-09-16T05:10:45.984Z,504
2018-09-16T05:11:53.959Z,544
2018-09-16T05:13:02.035Z,588
2018-09-16T05:14:10.088Z,640
2018-09-16T05:15:18.215Z,688
2018-09-16T05:16:26.213Z,732
2018-09-16T05:17:34.649Z,784
2018-09-16T05:18:42.420Z,836
2018-09-16T05:19:50.416Z,892
2018-09-16T05:20:58.453Z,944
2018-09-16T05:22:06.518Z,1000
2018-09-16T05:23:14.578Z,1056
2018-09-16T05:24:23.117Z,1116
2018-09-16T05:25:30.763Z,1172
2018-09-16T05:26:38.766Z,1228
2018-09-16T05:27:48.175Z,1288
2018-09-16T05:28:55.331Z,1352
2018-09-16T05:30:03.076Z,1412
2018-09-16T05:31:11.063Z,1472
2018-09-16T05:32:19.329Z,1536
2018-09-16T05:33:27.123Z,1592
2018-09-16T05:34:35.205Z,1656
2018-09-16T05:35:43.630Z,1716
2018-09-16T05:36:51.321Z,1776
2018-09-16T05:37:59.378Z,1840
2018-09-16T05:39:07.786Z,1900
2018-09-16T05:40:15.539Z,1956
2018-09-16T05:41:23.561Z,2012
2018-09-16T05:42:32.093Z,2072
2018-09-16T05:43:39.954Z,2128
2018-09-16T05:44:47.754Z,2184
2018-09-16T05:45:55.833Z,2240
2018-09-16T05:47:04.067Z,2304
2018-09-16T05:48:11.938Z,2368
2018-09-16T05:49:21.050Z,2424
2018-09-16T05:50:28.067Z,2492
2018-09-16T05:51:36.486Z,2548
2018-09-16T05:52:44.610Z,2608
2018-09-16T05:53:52.648Z,2656
2018-09-16T05:55:00.726Z,2700
2018-09-16T05:56:08.782Z,2748
2018-09-16T05:57:16.845Z,2804
2018-09-16T05:58:25.233Z,2848
2018-09-16T05:59:32.944Z,2912
2018-09-16T06:00:41.040Z,2980
2018-09-16T06:01:49.082Z,3048
2018-09-16T06:02:57.161Z,3112
2018-09-16T06:04:05.214Z,3152
2018-09-16T06:05:13.260Z,3208
2018-09-16T06:06:24.160Z,3260
2018-09-16T06:07:29.399Z,3308
2018-09-16T06:08:37.661Z,3364
2018-09-16T06:09:45.889Z,3428
2018-09-16T06:10:53.672Z,3484
2018-09-16T06:12:01.659Z,3536
2018-09-16T06:13:10.031Z,3592
2018-09-16T06:14:18.090Z,3652
2018-09-16T06:15:25.835Z,3772
2018-09-16T06:16:33.989Z,3752
2018-09-16T06:17:43.794Z,3820
2018-09-16T06:18:51.682Z,3888
2018-09-16T06:19:58.081Z,3928
2018-09-16T06:21:06.147Z,4080
2018-09-16T06:22:14.220Z,4160
2018-09-16T06:23:22.589Z,4100
2018-09-16T06:24:30.354Z,4188
2018-09-16T06:25:38.729Z,4220
2018-09-16T06:26:46.836Z,4256
2018-09-16T06:27:54.868Z,4404
2018-09-16T06:29:03.318Z,4540
2018-09-16T06:30:10.654Z,4996
2018-09-16T06:31:18.725Z,5540
2018-09-16T06:32:26.772Z,4908
2018-09-16T06:33:34.859Z,4656
2018-09-16T06:34:43.125Z,4772
2018-09-16T06:35:51.174Z,4988
2018-09-16T06:36:59.229Z,5104
2018-09-16T06:38:07.388Z,5392
2018-09-16T06:39:15.367Z,5724
2018-09-16T06:40:23.396Z,5124
2018-09-16T06:41:31.697Z,5044
2018-09-16T06:42:39.981Z,5060
2018-09-16T06:43:47.823Z,5480
2018-09-16T06:44:55.847Z,5892
2018-09-16T06:46:04.425Z,7912
2018-09-16T06:47:11.805Z,7288
2018-09-16T06:48:19.875Z,6568
2018-09-16T06:49:27.934Z,6168
2018-09-16T06:50:36.003Z,6472
2018-09-16T06:51:44.113Z,6628
2018-09-16T06:52:52.402Z,8060
2018-09-16T06:54:00.878Z,7364
2018-09-16T06:55:08.500Z,7232
2018-09-16T06:56:16.657Z,8124
2018-09-16T06:57:25.947Z,9364
2018-09-16T06:58:32.952Z,7396
2018-09-16T06:59:40.714Z,6880
2018-09-16T07:00:48.852Z,8116
2018-09-16T07:01:56.843Z,10144
2018-09-16T07:03:04.902Z,13364
2018-09-16T07:04:13.255Z,13776
2018-09-16T07:05:21.031Z,20992
2018-09-16T07:06:29.087Z,23744
2018-09-16T07:07:37.161Z,24320
2018-09-16T07:08:45.212Z,23264
2018-09-16T07:09:53.255Z,22560
2018-09-16T07:11:01.559Z,21952
2018-09-16T07:12:09.638Z,21696
2018-09-16T07:13:17.798Z,21728
2018-09-16T07:14:25.812Z,20576
2018-09-16T07:15:33.814Z,20640
2018-09-16T07:16:41.885Z,20128
2018-09-16T07:17:49.949Z,19264
2018-09-16T07:18:58.730Z,19040
2018-09-16T07:20:06.148Z,18816
2018-09-16T07:21:14.349Z,19328
2018-09-16T07:22:22.706Z,20160
2018-09-16T07:23:31.882Z,20096
2018-09-16T07:24:38.555Z,20096
2018-09-16T07:25:46.635Z,20992
2018-09-16T07:26:55.119Z,21824
2018-09-16T07:28:03.092Z,23296
2018-09-16T07:29:10.836Z,24096
2018-09-16T07:30:19.315Z,24320
2018-09-16T07:31:26.986Z,26016
2018-09-16T07:32:35.047Z,28160
2018-09-16T07:33:43.547Z,31296
2018-09-16T07:34:51.741Z,33376
2018-09-16T07:35:59.484Z,36864
2018-09-16T07:37:07.833Z,39264
2018-09-16T07:38:15.991Z,37408
2018-09-16T07:39:23.728Z,32768
2018-09-16T07:40:32.487Z,32352
2018-09-16T07:41:41.410Z,34560
2018-09-16T07:42:49.939Z,33888
2018-09-16T07:43:57.360Z,32896
2018-09-16T07:45:05.429Z,33344
2018-09-16T07:46:13.823Z,34912
2018-09-16T07:47:21.628Z,34656
2018-09-16T07:48:31.651Z,36960
2018-09-16T07:49:39.735Z,37408
2018-09-16T07:50:48.453Z,37376
2018-09-16T07:51:56.051Z,36992
2018-09-16T07:53:04.223Z,37184
2018-09-16T07:54:12.014Z,36704
2018-09-16T07:55:20.084Z,36864
2018-09-16T07:56:28.155Z,37856
2018-09-16T07:57:36.271Z,39936
2018-09-16T07:58:44.973Z,40576
2018-09-16T07:59:52.358Z,40256
2018-09-16T08:01:00.417Z,41600
2018-09-16T08:02:08.726Z,42080
2018-09-16T08:03:16.633Z,42816
2018-09-16T08:04:24.650Z,42048
2018-09-16T08:05:33.256Z,41728
2018-09-16T08:06:40.807Z,42656
2018-09-16T08:07:49.099Z,47136
2018-09-16T08:08:57.255Z,44384
2018-09-16T08:10:05.553Z,41088
2018-09-16T08:11:13.262Z,41024
2018-09-16T08:12:21.374Z,42112
2018-09-16T08:13:29.452Z,43328
2018-09-16T08:14:37.765Z,41824
2018-09-16T08:15:45.987Z,42624
2018-09-16T08:16:53.667Z,43968
2018-09-16T08:18:08.007Z,44512
2018-09-16T08:19:09.810Z,44736
2018-09-16T08:20:18.501Z,47200
2018-09-16T08:21:27.644Z,45792
2018-09-16T08:22:35.635Z,43840
2018-09-16T08:23:43.730Z,44992
2018-09-16T08:24:51.839Z,46528
2018-09-16T08:25:59.854Z,48192
2018-09-16T08:27:09.389Z,46560
2018-09-16T08:28:16.071Z,46816
2018-09-16T08:29:24.075Z,47712
2018-09-16T08:30:32.157Z,47648
2018-09-16T08:31:40.239Z,45280
2018-09-16T08:32:48.314Z,46592
2018-09-16T08:33:56.372Z,28896
2018-09-16T08:35:04.453Z,7596
2018-09-16T08:36:12.548Z,6716
2018-09-16T08:37:20.865Z,6756
2018-09-16T08:38:28.713Z,6792
2018-09-16T08:39:36.734Z,6796
2018-09-16T08:40:44.813Z,6796
2018-09-16T08:41:52.847Z,6748
2018-09-16T08:43:01.661Z,6712
2018-09-16T08:44:09.018Z,6668
2018-09-16T08:45:17.126Z,6628
2018-09-16T08:46:25.209Z,6644
2018-09-16T08:47:33.200Z,6668
2018-09-16T08:48:41.307Z,6656
2018-09-16T08:49:50.048Z,6624
2018-09-16T08:50:57.969Z,6600
2018-09-16T08:52:05.517Z,6620
2018-09-16T08:53:13.568Z,6648
2018-09-16T08:54:21.650Z,6656
2018-09-16T08:56:49.093Z,6672
2018-09-16T08:57:54.993Z,6672
2018-09-16T08:59:03.020Z,6716
2018-09-16T09:00:11.040Z,6752
2018-09-16T09:01:20.170Z,6780
2018-09-16T09:02:27.203Z,6788
2018-09-16T09:03:35.256Z,6764
2018-09-16T09:04:47.076Z,6792
2018-09-16T09:05:54.203Z,6864
2018-09-16T09:07:02.288Z,6952
2018-09-16T09:08:10.360Z,7044
2018-09-16T09:09:21.121Z,7052
2018-09-16T09:10:29.198Z,7028
2018-09-16T09:11:36.175Z,6956
2018-09-16T09:12:44.510Z,6920
2018-09-16T09:13:52.302Z,6912
2018-09-16T09:15:00.567Z,6868
2018-09-16T09:16:10.652Z,6844
2018-09-16T09:17:16.699Z,6816
2018-09-16T09:18:24.765Z,6796
2018-09-16T09:19:32.910Z,7076
2018-09-16T09:20:40.902Z,7036
2018-09-16T09:21:49.061Z,6940
2018-09-16T09:22:57.039Z,7144
2018-09-16T09:24:05.113Z,7252
2018-09-16T09:25:13.413Z,7208
2018-09-16T09:26:21.492Z,7324
2018-09-16T09:27:29.662Z,7280
2018-09-16T09:28:37.680Z,7180
2018-09-16T09:29:45.906Z,7108
2018-09-16T09:30:53.977Z,6996
2018-09-16T09:32:02.035Z,7008
2018-09-16T09:33:10.115Z,6844
2018-09-16T09:34:18.193Z,6752
2018-09-16T09:35:26.232Z,6876
2018-09-16T09:36:34.308Z,6940
2018-09-16T09:37:42.373Z,6916
2018-09-16T09:38:50.444Z,6848
2018-09-16T09:39:58.517Z,6824
2018-09-16T09:41:06.583Z,6720
2018-09-16T09:42:14.668Z,6588
2018-09-16T09:43:22.694Z,6512
2018-09-16T09:44:30.797Z,6568
2018-09-16T09:45:38.846Z,6672
2018-09-16T09:46:46.923Z,6796
2018-09-16T09:47:54.983Z,6844
2018-09-16T09:49:03.033Z,6872
2018-09-16T09:50:11.220Z,6920
2018-09-16T09:51:19.186Z,6964
2018-09-16T09:52:27.278Z,7048
2018-09-16T09:53:35.347Z,7084
2018-09-16T09:54:43.598Z,7136
2018-09-16T09:55:51.685Z,7052
2018-09-16T09:56:59.748Z,7056
2018-09-16T09:58:07.823Z,7048
2018-09-16T09:59:16.064Z,6968
2018-09-16T10:00:23.950Z,6944
2018-09-16T10:01:32.024Z,6944
2018-09-16T10:02:40.125Z,7064
2018-09-16T10:03:48.148Z,7236
2018-09-16T10:04:56.215Z,7272
2018-09-16T10:06:04.706Z,7372
2018-09-16T10:07:12.351Z,7408
2018-09-16T10:08:20.419Z,7488
2018-09-16T10:09:28.522Z,7512
2018-09-16T10:10:36.579Z,7488
2018-09-16T10:11:44.635Z,7476
2018-09-16T10:12:52.672Z,7532
2018-09-16T10:14:00.763Z,7420
2018-09-16T10:15:09.452Z,7312
2018-09-16T10:16:16.921Z,7256
2018-09-16T10:17:24.974Z,7296
2018-09-16T10:18:33.007Z,7264
2018-09-16T10:19:41.106Z,7024
2018-09-16T10:20:49.181Z,7012
2018-09-16T10:21:57.249Z,6992
2018-09-16T10:23:05.318Z,6792
2018-09-16T10:24:14.447Z,6676
2018-09-16T10:25:21.457Z,6712
2018-09-16T10:26:29.583Z,6968
2018-09-16T10:27:37.586Z,7016
2018-09-16T10:28:45.643Z,7004
2018-09-16T10:29:54.347Z,7008
2018-09-16T10:31:01.807Z,7072
2018-09-16T10:32:09.860Z,7116
2018-09-16T10:33:17.949Z,7064
2018-09-16T10:34:26.021Z,6944
2018-09-16T10:35:34.377Z,6712
2018-09-16T10:36:42.134Z,6592
2018-09-16T10:37:50.209Z,6412
2018-09-16T10:38:58.420Z,6340
2018-09-16T10:40:06.341Z,6392
2018-09-16T10:41:14.416Z,6524
2018-09-16T10:42:22.490Z,6744
2018-09-16T10:43:30.649Z,6828
2018-09-16T10:44:38.629Z,6868
2018-09-16T10:45:46.699Z,6792
2018-09-16T10:46:54.760Z,6720
2018-09-16T10:48:02.804Z,6612
2018-09-16T10:49:10.901Z,6576
2018-09-16T10:50:18.964Z,6516
2018-09-16T10:51:27.307Z,6448
2018-09-16T10:52:35.093Z,6436
2018-09-16T10:53:43.145Z,6412
2018-09-16T10:54:51.253Z,6388
2018-09-16T10:55:59.307Z,6360
2018-09-16T10:57:07.385Z,6268
2018-09-16T10:58:16.146Z,6208
2018-09-16T10:59:24.135Z,6292
2018-09-16T11:00:32.202Z,6388
2018-09-16T11:01:40.263Z,6424
2018-09-16T11:02:48.341Z,6424
2018-09-16T11:03:56.397Z,6424
2018-09-16T11:05:04.492Z,6400
2018-09-16T11:06:12.529Z,6384
2018-09-16T11:07:20.618Z,6436
2018-09-16T11:08:28.680Z,6388
2018-09-16T11:09:36.835Z,6440
2018-09-16T11:10:44.830Z,6528
2018-09-16T11:11:52.854Z,6540
2018-09-16T11:13:00.960Z,6428
2018-09-16T11:14:09.024Z,6572
2018-09-16T11:15:17.094Z,6976
2018-09-16T11:16:25.170Z,7164
2018-09-16T11:17:33.210Z,7348
2018-09-16T11:18:41.335Z,7216
2018-09-16T11:19:49.361Z,6968
2018-09-16T11:20:57.477Z,6952
2018-09-16T11:22:05.546Z,6844
2018-09-16T11:23:13.586Z,6772
2018-09-16T11:24:21.667Z,6712
2018-09-16T11:25:29.723Z,6672
2018-09-16T11:26:37.809Z,6624
2018-09-16T11:27:45.862Z,6692
2018-09-16T11:28:54.259Z,6816
2018-09-16T11:30:02.043Z,6948
2018-09-16T11:31:10.072Z,6964
2018-09-16T11:32:18.145Z,7016
2018-09-16T11:33:26.211Z,7040
2018-09-16T11:34:34.406Z,7088
2018-09-16T11:35:42.369Z,7292
2018-09-16T11:36:50.436Z,7932
2018-09-16T11:37:58.488Z,8936
2018-09-16T11:39:06.563Z,9712
2018-09-16T11:40:14.630Z,9532
2018-09-16T11:41:22.677Z,8852
2018-09-16T11:42:30.774Z,8140
2018-09-16T11:43:38.846Z,7800
2018-09-16T11:44:46.952Z,7536
2018-09-16T11:45:54.985Z,7388
2018-09-16T11:47:03.028Z,7340
2018-09-16T11:48:11.112Z,7104
2018-09-16T11:49:19.180Z,6880
2018-09-16T11:50:27.263Z,6760
2018-09-16T11:51:35.387Z,6636
2018-09-16T11:52:43.387Z,6372
2018-09-16T11:53:51.839Z,6180
2018-09-16T11:54:59.560Z,5964
2018-09-16T11:56:07.626Z,5808
2018-09-16T11:57:15.721Z,5716
2018-09-16T11:58:23.744Z,5680
2018-09-16T11:59:31.814Z,5768
2018-09-16T12:00:40.003Z,5828
2018-09-16T12:01:47.968Z,5816
2018-09-16T12:02:56.035Z,5804
2018-09-16T12:04:04.114Z,5768
2018-09-16T12:05:12.236Z,5756
2018-09-16T12:06:20.257Z,5792
2018-09-16T12:07:28.330Z,5896
2018-09-16T12:08:36.399Z,5956
2018-09-16T12:09:44.727Z,6016
2018-09-16T12:10:52.509Z,6052
2018-09-16T12:12:00.583Z,6104
2018-09-16T12:13:08.660Z,6152
2018-09-16T12:14:17.004Z,6176
2018-09-16T12:15:24.820Z,6188
2018-09-16T12:16:32.848Z,6180
2018-09-16T12:17:40.952Z,6248
2018-09-16T12:18:49.014Z,6244
2018-09-16T12:19:57.350Z,6188
2018-09-16T12:21:05.147Z,6228
2018-09-16T12:22:13.200Z,6196
2018-09-16T12:23:21.285Z,6184
2018-09-16T12:24:29.378Z,6168
2018-09-16T12:25:37.461Z,6140
2018-09-16T12:26:45.508Z,6052
2018-09-16T12:27:53.579Z,6016
2018-09-16T12:29:01.665Z,6028
2018-09-16T12:30:09.738Z,6200
2018-09-16T12:31:17.805Z,6316
2018-09-16T12:32:25.850Z,6416
2018-09-16T12:33:33.923Z,6580
2018-09-16T12:34:42.000Z,6556
2018-09-16T12:35:50.116Z,6408
2018-09-16T12:36:58.124Z,6404
2018-09-16T12:38:06.193Z,6516
2018-09-16T12:39:14.277Z,6804
2018-09-16T12:40:22.345Z,6976
2018-09-16T12:41:30.417Z,7308
2018-09-16T12:42:38.494Z,7768
2018-09-16T12:43:46.556Z,8332
2018-09-16T12:44:54.628Z,8952
2018-09-16T12:46:02.683Z,9176
2018-09-16T12:47:10.776Z,9612
2018-09-16T12:48:18.832Z,9604
2018-09-16T12:49:26.929Z,9572
2018-09-16T12:50:34.974Z,9708
2018-09-16T12:51:43.018Z,9256
2018-09-16T12:52:51.112Z,8868
2018-09-16T12:53:59.185Z,9044
2018-09-16T12:55:07.261Z,9884
2018-09-16T12:56:15.326Z,10796
2018-09-16T12:57:23.361Z,11284
2018-09-16T12:58:31.451Z,11532
2018-09-16T12:59:39.529Z,11556
2018-09-16T13:00:47.599Z,11740
2018-09-16T13:01:55.805Z,12256
2018-09-16T13:03:03.739Z,12680
2018-09-16T13:04:11.818Z,12844
2018-09-16T13:05:19.882Z,12780
2018-09-16T13:06:27.949Z,12768
2018-09-16T13:07:36.020Z,12620
2018-09-16T13:08:44.223Z,12548
2018-09-16T13:09:52.160Z,12648
2018-09-16T13:11:00.417Z,12728
2018-09-16T13:12:08.487Z,12828
2018-09-16T13:13:16.727Z,13112
2018-09-16T13:14:24.618Z,13188
2018-09-16T13:15:32.677Z,13128
2018-09-16T13:16:40.773Z,12904
2018-09-16T13:17:48.834Z,12520
2018-09-16T13:18:56.914Z,11972
2018-09-16T13:20:04.982Z,11588
2018-09-16T13:21:13.297Z,11148
2018-09-16T13:22:21.131Z,10904
2018-09-16T13:23:29.199Z,10256
2018-09-16T13:24:37.264Z,9896
2018-09-16T13:25:45.338Z,9680
2018-09-16T13:26:53.643Z,9528
2018-09-16T13:28:01.688Z,9720
2018-09-16T13:29:09.758Z,10380
2018-09-16T13:30:17.879Z,11276
2018-09-16T13:31:26.142Z,11368
2018-09-16T13:32:34.179Z,11096
2018-09-16T13:33:42.330Z,10632
2018-09-16T13:34:50.567Z,10120
2018-09-16T13:35:58.385Z,9888
2018-09-16T13:37:06.445Z,9268
2018-09-16T13:38:14.832Z,9048
2018-09-16T13:39:22.595Z,9032
2018-09-16T13:40:30.676Z,8792
2018-09-16T13:41:38.744Z,8780
2018-09-16T13:42:46.798Z,9220
2018-09-16T13:43:54.886Z,9384
2018-09-16T13:45:02.920Z,8828
2018-09-16T13:46:11.014Z,8124
2018-09-16T13:47:19.083Z,7592
2018-09-16T13:48:27.158Z,7328
2018-09-16T13:49:35.231Z,8072
2018-09-16T13:50:43.272Z,8804
2018-09-16T13:51:51.382Z,8456
2018-09-16T13:52:59.439Z,8156
2018-09-16T13:54:07.511Z,8912
2018-09-16T13:55:15.590Z,9544
2018-09-16T13:56:23.657Z,9368
2018-09-16T13:57:31.722Z,8700
2018-09-16T13:58:39.810Z,8112
2018-09-16T13:59:47.859Z,7820
2018-09-16T14:00:55.945Z,7936
2018-09-16T14:02:04.009Z,8068
2018-09-16T14:03:12.273Z,7884
2018-09-16T14:04:20.346Z,7920
2018-09-16T14:05:28.700Z,7884
2018-09-16T14:06:36.697Z,8068
2018-09-16T14:07:44.775Z,8292
2018-09-16T14:08:52.810Z,8360
2018-09-16T14:10:00.913Z,8612
2018-09-16T14:11:08.982Z,8892
2018-09-16T14:12:17.044Z,9352
2018-09-16T14:13:25.111Z,9740
2018-09-16T14:14:33.158Z,10304
2018-09-16T14:15:41.250Z,10656
2018-09-16T14:16:49.575Z,10516
2018-09-16T14:17:57.589Z,10476
2018-09-16T14:19:05.853Z,10404
2018-09-16T14:20:13.940Z,10256
2018-09-16T14:21:21.998Z,10548
2018-09-16T14:22:30.171Z,10612
2018-09-16T14:23:38.145Z,10664
2018-09-16T14:24:46.224Z,10728
2018-09-16T14:25:54.304Z,10612
2018-09-16T14:27:02.361Z,10528
2018-09-16T14:28:10.546Z,10412
2018-09-16T14:29:18.488Z,10392
2018-09-16T14:30:26.565Z,10076
2018-09-16T14:31:34.640Z,9788
2018-09-16T14:32:42.692Z,9832
2018-09-16T14:33:50.779Z,9620
2018-09-16T14:34:59.157Z,9256
2018-09-16T14:36:07.526Z,8996
2018-09-16T14:37:15.508Z,9000
2018-09-16T14:38:23.459Z,8924
2018-09-16T14:39:31.993Z,9156
2018-09-16T14:40:39.635Z,9432
2018-09-16T14:41:47.487Z,8828
2018-09-16T14:42:55.688Z,8692
2018-09-16T14:44:03.610Z,8660
2018-09-16T14:45:11.699Z,8240
2018-09-16T14:46:19.756Z,8048
2018-09-16T14:47:28.303Z,7688
2018-09-16T14:48:35.890Z,7448
2018-09-16T14:49:44.361Z,7336
2018-09-16T14:50:52.035Z,7292
2018-09-16T14:52:00.092Z,7344
2018-09-16T14:53:08.164Z,7520
2018-09-16T14:54:16.261Z,7676
2018-09-16T14:55:24.325Z,7504
2018-09-16T14:56:33.665Z,7400
2018-09-16T14:57:40.738Z,7428
2018-09-16T14:58:48.546Z,7348
2018-09-16T14:59:56.653Z,7180
2018-09-16T15:01:04.691Z,6812
2018-09-16T15:02:12.766Z,6580
2018-09-16T15:03:20.816Z,6488
2018-09-16T15:04:28.879Z,6212
2018-09-16T15:05:37.302Z,5948
2018-09-16T15:06:45.063Z,5784
2018-09-16T15:07:53.072Z,5668
2018-09-16T15:09:01.160Z,5644
2018-09-16T15:10:09.379Z,5652
2018-09-16T15:11:17.284Z,5676
2018-09-16T15:12:25.466Z,5708
2018-09-16T15:13:33.434Z,5716
2018-09-16T15:14:41.509Z,5692
2018-09-16T15:15:49.587Z,5700
2018-09-16T15:16:57.653Z,5692
2018-09-16T15:18:06.265Z,5684
2018-09-16T15:19:14.330Z,5720
2018-09-16T15:20:22.044Z,5840
2018-09-16T15:21:30.217Z,5940
2018-09-16T15:22:38.187Z,5928
2018-09-16T15:23:46.282Z,5948
2018-09-16T15:24:54.329Z,6044
2018-09-16T15:26:02.394Z,6164
2018-09-16T15:27:10.707Z,6268
2018-09-16T15:28:18.600Z,6340
2018-09-16T15:29:26.612Z,6352
2018-09-16T15:30:34.671Z,6276
2018-09-16T15:31:43.018Z,6160
2018-09-16T15:32:51.147Z,6052